Terminal Aerodrome Forecast
Issued by NWS

Home | Current Version | Previous Version | Text Only | Print | Product List | Glossary On
Versions: 1 2 3 4 5 6 7 8 9 10 11 12 13 14 15 16 17 18 19 20 21 22 23 24
000
FTUS43 KGRB 020200 AAB
TAFATW
TAF AMD
KATW 020245Z 0203/0224 14009KT P6SM SCT060 BKN090
      TEMPO 0203/0205 -SHRA SCT045 OVC060
     FM020500 14005KT 6SM -SHRA BR SCT014 BKN040
     FM020900 16003KT 2SM BR SCT004 OVC008
      TEMPO 0210/0214 1/2SM FG VV003
     FM021400 13003KT 2SM BR SCT008 BKN014
     FM021800 13005KT 5SM BR SCT015 BKN030 PROB30 0222/0224 2SM
      -TSRA OVC015CB=

USA.gov is the U.S. government's official web portal to all federal, state and local government web resources and services.